EST,Max TemperatureF,Mean TemperatureF,Min TemperatureF,Max Dew PointF,MeanDew PointF,Min DewpointF,Max Humidity, Mean Humidity, Min Humidity, Max Sea Level PressureIn, Mean Sea Level PressureIn, Min Sea Level PressureIn, Max VisibilityMiles, Mean VisibilityMiles, Min VisibilityMiles, Max Wind SpeedMPH, Mean Wind SpeedMPH, Max Gust SpeedMPH,PrecipitationIn, CloudCover, Events, WindDirDegrees
2014-1-1,22,19,15,17,14,10,88,83,77,30.33,30.23,30.10,10,7,1,22,13,25,0.13,8,Snow,64
2014-1-2,16,9,2,12,8,-6,88,76,63,30.36,30.10,29.99,10,3,0,26,16,31,0.31,7,Fog-Snow,21
2014-1-3,14,2,-10,4,-4,-13,87,69,50,30.53,30.41,30.19,10,10,10,17,8,21,0.00,2,,215
2014-1-4,35,24,12,26,14,4,72,64,56,30.18,30.05,29.99,10,10,10,25,14,30,0.00,5,,201
2014-1-5,35,28,20,31,25,15,100,85,70,30.04,29.81,29.63,10,3,0,25,10,33,0.84,8,Fog-Snow,9
2014-1-6,20,3,-14,16,-10,-21,84,74,63,30.32,30.07,29.73,7,3,2,32,23,40,T,5,Snow,269
2014-1-7,8,-3,-15,1,-12,-20,77,71,65,30.43,30.37,30.26,10,9,4,22,14,30,0.00,5,Snow,228
2014-1-8,18,11,3,10,5,-2,83,75,67,30.54,30.43,30.36,10,10,9,8,4,12,0.00,6,,218
2014-1-9,28,15,1,27,12,-3,95,85,74,30.58,30.43,30.25,10,4,0,13,5,15,0.05,7,Snow,94
2014-1-10,39,34,28,38,34,27,100,93,85,30.25,30.03,29.66,6,2,0,14,8,17,0.43,8,Fog-Rain-Snow,165
2014-1-11,40,37,33,39,35,28,100,91,82,29.75,29.54,29.43,10,4,0,29,14,37,0.10,8,Fog-Rain-Snow,235
2014-1-12,40,35,30,31,28,26,85,78,70,30.02,29.87,29.74,10,9,6,22,13,29,T,7,Snow,225
2014-1-13,45,40,34,39,33,30,92,79,65,29.77,29.69,29.61,10,10,10,21,13,25,0.00,6,,221
2014-1-14,40,32,23,32,26,18,92,73,54,29.86,29.79,29.71,10,8,4,30,14,41,T,6,Rain-Snow,245
2014-1-15,27,23,19,17,15,11,77,70,63,30.09,30.01,29.86,10,9,5,26,15,35,T,7,Snow,256
2014-1-16,30,24,17,27,20,11,92,80,67,29.99,29.74,29.63,10,5,1,24,17,30,0.14,8,Snow,200
2014-1-17,27,17,6,19,11,2,84,73,62,30.04,29.87,29.72,10,9,2,22,11,25,T,7,Snow,251
2014-1-18,20,13,6,18,12,4,92,83,73,30.01,29.91,29.79,10,5,1,17,9,22,0.13,7,Snow,156
2014-1-19,34,24,13,24,16,10,92,79,66,29.89,29.79,29.60,10,6,0,32,16,39,T,6,Fog-Snow,255
2014-1-20,36,30,24,28,25,19,85,74,63,29.96,29.81,29.57,10,10,5,26,10,31,0.01,7,Snow,278
2014-1-21,24,10,-4,18,0,-10,88,65,41,30.26,30.12,29.92,10,6,1,28,12,35,0.02,6,Snow,20
2014-1-22,14,6,-3,10,3,-6,92,82,72,30.24,30.05,29.94,10,5,1,18,10,24,0.05,8,Snow,217
2014-1-23,9,3,-3,0,-6,-11,79,72,65,30.60,30.40,30.08,10,10,10,22,16,28,T,2,Snow,265
2014-1-24,19,6,-8,15,-1,-13,92,74,56,30.59,30.20,29.69,10,8,1,32,19,44,0.03,5,Snow,223
2014-1-25,31,19,6,25,13,-4,92,73,54,29.88,29.56,29.39,10,4,1,33,20,43,0.11,6,Snow,264
2014-1-26,37,20,3,28,11,-4,88,76,63,29.87,29.61,29.45,10,7,1,35,15,48,0.16,7,Snow,210
2014-1-27,23,7,-9,14,-6,-17,80,67,54,30.45,30.11,29.62,10,8,1,39,20,47,0.03,4,Snow,269
2014-1-28,3,-6,-16,-9,-14,-21,81,66,51,30.51,30.43,30.34,10,10,10,15,8,17,0.00,1,,241
2014-1-29,18,6,-7,3,-3,-11,82,65,47,30.32,30.28,30.22,10,10,10,22,13,28,0.00,0,,226
2014-1-30,30,20,9,24,10,0,78,64,50,30.21,30.02,29.84,10,9,2,26,15,35,0.01,6,Snow,202
2014-1-31,31,29,26,27,23,16,92,73,53,30.15,30.09,29.93,10,4,1,20,6,25,0.04,8,Snow,246